Virtual LH

Virtual LH. There's no better way to fly
Since 2013.



AIRPORT MAP

METAR AND TAF INFORMATION

METAR FOR LEIB
ADDS - METARS form results

(0909 UTC 21 January 2019)
Data provider http://aviationweather.gov/metar/data/
 
METAR text: LEIB 210900Z 04003KT 9999 FEW018TCU SCT024 BKN033 10/06 Q1017 NOSIG
Conditions at: LEIB (IBIZA/ES CODOLA , ES) observed 0900 UTC 21 January 2019
Temperature: 10.0°C (50°F)
Dewpoint: 6.0°C (43°F) [RH = 76%]
Pressure (altimeter): 30.03 inches Hg (1017.0 mb)
Winds: from the NE (40 degrees) at 3 MPH (3 knots; 1.5 m/s)
Visibility: 6 or more miles (10+ km)
Ceiling: 3300 feet AGL
Clouds: few clouds at 1800 feet AGL
scattered clouds at 2400 feet AGL
broken clouds at 3300 feet AGL
Weather: no significant weather observed at this time

METAR text: LEIB 210830Z 34003KT 280V030 9999 -SHRA FEW018TCU SCT028 BKN045 10/07 Q1016 NOSIG
Conditions at: LEIB (IBIZA/ES CODOLA , ES) observed 0830 UTC 21 January 2019
Temperature: 10.0°C (50°F)
Dewpoint: 7.0°C (45°F) [RH = 82%]
Pressure (altimeter): 30.00 inches Hg (1016.0 mb)
Winds: from the NNW (340 degrees) at 3 MPH (3 knots; 1.5 m/s)
Visibility: 6 or more miles (10+ km)
Ceiling: 4500 feet AGL
Clouds: few clouds at 1800 feet AGL
scattered clouds at 2800 feet AGL
broken clouds at 4500 feet AGL
Weather: -SHRA  (light rain showers)

Forecast for: LEIB (IBIZA/ES CODOLA , ES)
Text: TAF LEIB 210800Z 2109/2209 35015KT 9999 SCT025 TX13/2112Z TN03/2206Z
Forecast period: 0900 UTC 21 January 2019 to 0900 UTC 22 January 2019
Forecast type: FROM: standard forecast or significant change
Winds: from the N (350 degrees) at 17 MPH (15 knots; 7.7 m/s)
Visibility: 6 or more miles 10+ km)
Ceiling: at least 12,000 feet AGL
Clouds: scattered clouds at 2500 feet AGL
Weather: no significant weather forecast for this period
Text: TEMPO 2109/2115 4000 SHRA BKN022 SCT025TCU
Forecast period: 0900 to 1500 UTC 21 January 2019
Forecast type: TEMPORARY: The following changes expected for less than half the time period
Visibility: 2.49 miles (4.01 km)
Ceiling: 2200 feet AGL
Clouds: broken clouds at 2200 feet AGL
scattered clouds at 2500 feet AGL
Weather: SHRA  (rain showers)

RUNWAY INFORMATION

Runway 06 Runway length 9186 ft Runway width 148 ft
Runway elevation 13 ft Runway displaced threshold 0 ft Runway heading 62
Runway 24 Runway length 9186 ft Runway width 148 ft
Runway elevation 16 ft Runway displaced threshold 0 ft Runway heading 242

AIRPORT FREQUENCIES

Type APP Name PALMA APP Frequency 118.125 MHZ
Type APP Name APP Frequency 119.8 MHZ
Type ATIS Name ATIS Frequency 117.8 MHZ
Type GND Name GND Frequency 121.8 MHZ
Type TWR Name TWR Frequency 118.5 MHZ

AIRPORT NEAR NAVIGATION AIDS

Type VOR-DME Name Ibiza Frequency 117800 KHZ
Type NDB Name Ibiza Frequency 394 KHZ